Time;durP1;ratioP1;P1;durP2;ratioP2;P2;SDS_P1;SDS_P2;PMS_P1;PMS_P2;Temp;Humidity;BMP_temperature;BMP_pressure;BME280_temperature;BME280_humidity;BME280_pressure;Samples;Min_cycle;Max_cycle;Signal;HPM_P1;HPM_P2
2023/06/30 00:00:55;;;;;;;4.38;2.50;;;17.80;99.90;;;-144.05;72.51;56891.31;5033514;28;20372;-82
2023/06/30 00:03:22;;;;;;;3.70;2.30;;;17.80;99.90;;;-144.05;72.19;56904.06;5033443;28;20118;-82
2023/06/30 00:05:48;;;;;;;4.05;2.00;;;17.70;99.90;;;-144.05;72.46;56914.69;5033397;28;20082;-82
2023/06/30 00:08:15;;;;;;;3.05;1.70;;;17.60;99.90;;;-144.05;72.70;56897.69;5051301;28;20032;-83
2023/06/30 00:10:42;;;;;;;3.55;1.75;;;17.60;99.90;;;-144.05;72.95;56908.31;5033516;28;20035;-83
2023/06/30 00:13:08;;;;;;;2.83;2.05;;;17.60;99.90;;;-144.05;72.76;56891.31;5050806;28;20106;-87
2023/06/30 00:15:33;;;;;;;4.78;2.22;;;17.60;99.90;;;-144.05;72.53;56876.44;5052415;28;20098;-87
2023/06/30 00:17:59;;;;;;;3.28;1.90;;;17.50;99.90;;;-144.05;73.27;56893.44;5052605;28;20476;-87
2023/06/30 00:20:25;;;;;;;3.60;1.77;;;17.60;99.90;;;-144.05;72.65;56878.56;5051523;28;20021;-88
2023/06/30 00:22:52;;;;;;;3.65;1.88;;;17.50;99.90;;;-144.05;72.48;56906.19;5051838;28;20413;-87
2023/06/30 00:25:18;;;;;;;3.33;2.22;;;17.50;99.90;;;-144.05;72.34;56921.06;5066457;28;20101;-84
2023/06/30 00:27:44;;;;;;;3.53;2.40;;;17.50;99.90;;;-144.05;72.26;56882.81;5057817;28;20118;-88
2023/06/30 00:30:10;;;;;;;1.85;1.27;;;17.50;99.90;;;-144.05;72.80;56901.94;5056495;28;20036;-86
2023/06/30 00:32:36;;;;;;;2.85;1.63;;;17.50;99.90;;;-144.05;72.80;56887.06;5056397;28;20545;-87
2023/06/30 00:35:03;;;;;;;3.08;1.63;;;17.50;99.90;;;-144.05;72.63;56878.56;5075439;28;20135;-83
2023/06/30 00:37:29;;;;;;;4.13;1.80;;;17.50;99.90;;;-144.05;72.61;56878.56;5071194;28;20063;-82
2023/06/30 00:39:55;;;;;;;3.53;1.70;;;17.40;99.90;;;-144.05;72.81;56904.06;5053056;28;20055;-83
2023/06/30 00:42:21;;;;;;;4.20;1.73;;;17.40;99.90;;;-144.05;73.13;56899.81;5074685;28;20082;-83
2023/06/30 00:44:46;;;;;;;3.17;1.77;;;17.40;99.90;;;-144.05;73.29;56887.06;5075305;28;20132;-84
2023/06/30 00:47:12;;;;;;;2.63;1.35;;;17.40;99.90;;;-144.05;73.15;56897.69;5075432;28;20033;-84
2023/06/30 00:49:39;;;;;;;2.80;1.60;;;17.40;99.90;;;-144.05;73.27;56908.31;5075283;28;20081;-85
2023/06/30 00:52:06;;;;;;;2.75;2.22;;;17.40;99.90;;;-144.05;72.93;56884.94;5075370;28;20089;-82
2023/06/30 00:54:33;;;;;;;3.45;1.50;;;17.40;99.90;;;-144.05;72.87;56887.06;5073918;28;20119;-84
2023/06/30 00:57:05;;;;;;;3.80;1.95;;;17.30;99.90;;;-144.05;72.66;56899.81;5057163;28;20059;-85
2023/06/30 00:59:31;;;;;;;1.60;1.30;;;17.30;99.90;;;-144.05;72.92;56876.44;5057165;28;20028;-82
2023/06/30 01:02:09;;;;;;;2.88;1.70;;;17.30;99.90;;;-144.05;73.22;56880.69;5057422;28;20054;-84
2023/06/30 01:05:12;;;;;;;2.65;2.00;;;17.30;99.90;;;-144.05;72.86;56901.94;5057227;28;20059;-82
2023/06/30 01:08:08;;;;;;;3.17;1.85;;;17.20;99.90;;;-144.05;71.96;56901.94;5057225;28;20025;-83
2023/06/30 01:10:37;;;;;;;3.80;1.60;;;17.10;99.90;;;-144.05;72.39;56897.69;5057155;28;20025;-83
2023/06/30 01:13:06;;;;;;;3.92;1.73;;;17.00;99.90;;;-144.05;72.39;56895.56;5057016;28;20021;-83
2023/06/30 01:15:34;;;;;;;1.85;1.63;;;16.80;99.90;;;-144.05;71.74;56884.94;5075013;28;20360;-82
2023/06/30 01:18:03;;;;;;;2.60;1.25;;;16.80;99.90;;;-144.05;71.44;56887.06;5074989;28;20441;-82
2023/06/30 01:20:35;;;;;;;2.88;1.50;;;16.70;99.90;;;-144.05;71.61;56878.56;5075138;28;20021;-84
2023/06/30 01:23:33;;;;;;;2.67;1.17;;;16.60;99.90;;;-144.05;73.38;56882.81;5075406;28;20506;-82
2023/06/30 01:26:01;;;;;;;2.83;1.48;;;16.60;99.90;;;-144.05;73.20;56887.06;5056713;28;20474;-83
2023/06/30 01:28:29;;;;;;;1.63;1.38;;;16.40;99.90;;;-144.05;74.96;56874.31;5056661;28;20380;-86
2023/06/30 01:30:56;;;;;;;1.75;1.33;;;16.40;99.90;;;-144.05;75.91;56874.31;5056650;28;20123;-85
2023/06/30 01:33:23;;;;;;;3.08;1.30;;;16.40;99.90;;;-144.05;76.86;56876.44;5074618;28;20028;-82
2023/06/30 01:35:49;;;;;;;4.47;1.80;;;16.30;99.90;;;-144.05;77.82;56904.06;5056534;28;20453;-84
2023/06/30 01:38:16;;;;;;;3.90;1.80;;;16.30;99.90;;;-144.05;79.20;56887.06;5056671;28;20025;-83
2023/06/30 01:40:45;;;;;;;3.58;2.03;;;16.20;99.90;;;-144.05;79.85;56895.56;5056206;28;20115;-83
2023/06/30 01:43:13;;;;;;;3.10;2.00;;;16.10;99.90;;;-144.05;79.49;56876.44;5074552;28;20372;-82
2023/06/30 01:45:40;;;;;;;2.05;1.85;;;16.00;99.90;;;-144.05;80.89;56870.06;5072997;28;20040;-82
2023/06/30 01:48:07;;;;;;;4.30;1.92;;;16.00;99.90;;;-144.05;81.16;56884.94;5074484;28;20406;-83
2023/06/30 01:50:35;;;;;;;4.70;2.17;;;15.90;99.90;;;-144.05;81.16;56887.06;5056440;28;20441;-83
2023/06/30 01:53:01;;;;;;;3.38;2.10;;;15.90;99.90;;;-144.05;82.36;56878.56;5075102;28;20099;-83
2023/06/30 01:55:27;;;;;;;3.35;2.10;;;15.80;99.90;;;-144.05;82.99;56895.56;5074674;28;20111;-86
2023/06/30 01:57:53;;;;;;;5.95;2.67;;;15.80;99.90;;;-144.05;83.61;56878.56;5057740;28;20502;-86
2023/06/30 02:00:19;;;;;;;5.97;2.88;;;15.80;99.90;;;-144.05;84.09;56859.47;5077092;28;20020;-86
2023/06/30 02:02:45;;;;;;;3.78;2.50;;;15.70;99.90;;;-144.05;84.12;56891.31;5058423;28;20036;-89
2023/06/30 02:05:12;;;;;;;4.03;2.50;;;15.70;99.90;;;-144.05;84.37;56889.19;5073830;28;20032;-88
2023/06/30 02:07:38;;;;;;;5.25;2.30;;;15.60;99.90;;;-144.05;84.85;56876.44;5058150;28;20094;-88
2023/06/30 02:10:05;;;;;;;5.88;3.30;;;15.60;99.90;;;-144.05;85.50;56893.44;5058432;28;20029;-87
2023/06/30 02:12:31;;;;;;;4.72;2.78;;;15.60;99.90;;;-144.05;86.25;56870.06;5077724;28;20036;-88
2023/06/30 02:14:57;;;;;;;8.85;2.60;;;15.60;99.90;;;-144.05;86.37;56865.81;5058859;28;20024;-90
2023/06/30 02:17:32;;;;;;;6.32;3.25;;;15.70;99.90;;;-144.05;86.58;56887.06;5058371;28;20033;-90
2023/06/30 02:19:59;;;;;;;5.40;3.25;;;15.70;99.90;;;-144.05;86.93;56904.06;5057901;28;20040;-87
2023/06/30 02:22:26;;;;;;;13.00;3.47;;;15.60;99.90;;;-144.05;87.07;56895.56;5058804;28;20032;-89
2023/06/30 02:24:53;;;;;;;4.70;3.28;;;15.60;99.90;;;-144.05;87.25;56880.69;5058767;28;20025;-88
2023/06/30 02:27:19;;;;;;;7.88;3.85;;;15.50;99.90;;;-144.05;87.65;56895.56;5039654;28;20045;-90
2023/06/30 02:29:45;;;;;;;6.25;3.40;;;15.50;99.90;;;-144.05;88.18;56891.31;5038423;28;20127;-89
2023/06/30 02:32:11;;;;;;;6.38;3.92;;;15.50;99.90;;;-144.05;88.12;56878.56;5038202;28;20091;-88
2023/06/30 02:34:37;;;;;;;7.85;3.40;;;15.50;99.90;;;-144.05;88.37;56865.81;5037516;28;20094;-87
2023/06/30 02:37:03;;;;;;;6.32;3.45;;;15.50;99.90;;;-144.05;88.28;56861.56;5037339;28;20079;-88
2023/06/30 02:39:29;;;;;;;6.40;3.65;;;15.50;99.90;;;-144.05;88.72;56876.44;5037103;28;20506;-88
2023/06/30 02:41:55;;;;;;;7.88;4.32;;;15.50;99.90;;;-144.05;88.95;56882.81;5037305;28;20025;-87
2023/06/30 02:44:21;;;;;;;10.85;4.25;;;15.50;99.90;;;-144.05;88.97;56874.31;5053745;28;20032;-88
2023/06/30 02:46:47;;;;;;;8.00;3.95;;;15.50;99.90;;;-144.05;89.33;56878.56;5036467;28;20040;-87
2023/06/30 02:49:12;;;;;;;9.00;4.80;;;15.50;99.90;;;-144.05;89.26;56897.69;5036809;28;20525;-87
2023/06/30 02:51:38;;;;;;;7.97;4.60;;;15.40;99.90;;;-144.05;89.09;56889.19;5035994;28;20044;-86
2023/06/30 02:54:04;;;;;;;7.53;4.43;;;15.40;99.90;;;-144.05;89.62;56923.19;5035560;28;20033;-87
2023/06/30 02:56:30;;;;;;;10.43;5.70;;;15.50;99.90;;;-144.05;90.02;56887.06;5035177;28;20029;-87
2023/06/30 02:58:56;;;;;;;6.95;4.07;;;15.50;99.90;;;-144.05;90.12;56876.44;5035404;28;20368;-89
2023/06/30 03:01:22;;;;;;;10.35;5.45;;;15.50;99.90;;;-144.05;90.54;56891.31;5035360;28;20025;-88
2023/06/30 03:03:49;;;;;;;8.48;6.00;;;15.50;99.90;;;-144.05;90.41;56889.19;5035160;28;20025;-87
2023/06/30 03:06:15;;;;;;;8.48;6.10;;;15.50;99.90;;;-144.05;90.75;56901.94;5035095;28;20032;-87
2023/06/30 03:08:41;;;;;;;10.07;6.35;;;15.60;99.90;;;-144.05;90.72;56882.81;5035158;28;20029;-87
2023/06/30 03:11:07;;;;;;;8.65;6.15;;;15.60;99.90;;;-144.05;90.69;56895.56;5035157;28;20044;-89
2023/06/30 03:13:33;;;;;;;11.85;6.93;;;15.50;99.90;;;-144.05;90.75;56889.19;5053371;28;20040;-88
2023/06/30 03:15:59;;;;;;;12.15;6.78;;;15.50;99.90;;;-144.05;90.98;56895.56;5034597;28;20052;-87
2023/06/30 03:18:25;;;;;;;13.50;7.18;;;15.50;99.90;;;-144.05;91.05;56876.44;5035531;28;20076;-88
2023/06/30 03:20:51;;;;;;;13.10;7.47;;;15.50;99.90;;;-144.05;91.00;56870.06;5035155;28;20150;-88
2023/06/30 03:23:19;;;;;;;8.63;7.05;;;15.50;99.90;;;-144.05;91.23;56889.19;5051626;28;20070;-90
2023/06/30 03:25:45;;;;;;;10.88;7.25;;;15.50;99.90;;;-144.05;90.81;56893.44;5057414;28;20032;-88
2023/06/30 03:28:11;;;;;;;13.45;7.28;;;15.50;99.90;;;-144.05;91.16;56874.31;5054581;28;20094;-88
2023/06/30 03:30:37;;;;;;;9.77;7.47;;;15.50;99.90;;;-144.05;90.60;56865.81;5055382;28;20043;-88
2023/06/30 03:33:03;;;;;;;8.35;7.45;;;15.40;99.90;;;-144.05;91.08;56880.69;5071413;28;20021;-89
2023/06/30 03:35:29;;;;;;;9.50;6.75;;;15.50;99.90;;;-144.05;90.93;56893.44;5055209;28;20471;-91
2023/06/30 03:37:55;;;;;;;8.00;6.60;;;15.40;99.90;;;-144.05;90.85;56880.69;5071878;28;20036;-90
2023/06/30 03:40:20;;;;;;;14.60;7.50;;;15.40;99.90;;;-144.05;90.47;56882.81;5055509;28;20025;-88
2023/06/30 03:42:46;;;;;;;13.27;8.18;;;15.30;99.90;;;-144.05;90.88;56893.44;5072471;28;20029;-88
2023/06/30 03:45:12;;;;;;;10.30;7.15;;;15.30;99.90;;;-144.05;91.17;56897.69;5054266;28;20025;-88
2023/06/30 03:47:38;;;;;;;11.00;7.57;;;15.40;99.90;;;-144.05;91.16;56874.31;5054428;28;20032;-87
2023/06/30 03:50:05;;;;;;;10.95;6.90;;;15.30;99.90;;;-144.05;91.22;56884.94;5054837;28;20055;-86
2023/06/30 03:52:31;;;;;;;14.98;8.75;;;15.40;99.90;;;-144.05;90.97;56874.31;5054499;28;20116;-89
2023/06/30 03:54:57;;;;;;;13.40;8.13;;;15.40;99.90;;;-144.05;90.43;56904.06;5072635;28;20499;-89
2023/06/30 03:57:23;;;;;;;12.05;8.45;;;15.40;99.90;;;-144.05;90.58;56878.56;5071719;28;20049;-89
2023/06/30 03:59:49;;;;;;;12.02;7.70;;;15.40;99.90;;;-144.05;90.92;56882.81;5071118;28;20031;-87
2023/06/30 04:02:15;;;;;;;12.32;8.13;;;15.40;99.90;;;-144.05;91.07;56874.31;5054758;28;20060;-87
2023/06/30 04:04:41;;;;;;;12.43;8.43;;;15.40;99.90;;;-144.05;90.70;56880.69;5054257;28;20032;-87
2023/06/30 04:07:06;;;;;;;12.18;7.55;;;15.40;99.90;;;-144.05;91.06;56876.44;5054287;28;20028;-88
2023/06/30 04:09:32;;;;;;;14.48;8.57;;;15.30;99.90;;;-144.05;90.76;56901.94;5054361;28;20078;-88
2023/06/30 04:11:58;;;;;;;12.27;7.97;;;15.30;99.90;;;-144.05;90.93;56887.06;5054601;28;20028;-87
2023/06/30 04:14:24;;;;;;;13.48;8.15;;;15.30;99.90;;;-144.05;90.47;56887.06;5053733;28;20044;-87
2023/06/30 04:16:50;;;;;;;14.00;8.20;;;15.30;99.90;;;-144.05;90.76;56865.81;5056945;28;20032;-86
2023/06/30 04:19:15;;;;;;;9.00;6.57;;;15.30;99.90;;;-144.05;91.01;56872.19;5057945;28;20024;-86
2023/06/30 04:21:41;;;;;;;11.55;7.97;;;15.40;99.90;;;-144.05;90.99;56863.69;5058286;28;20025;-90
2023/06/30 04:24:07;;;;;;;15.95;7.38;;;15.30;99.90;;;-144.05;90.97;56874.31;5057967;28;20029;-86
2023/06/30 04:26:34;;;;;;;11.68;6.50;;;15.30;99.90;;;-144.05;90.95;56897.69;5045821;28;20044;-86
2023/06/30 04:28:59;;;;;;;12.15;7.22;;;15.30;99.90;;;-144.05;91.01;56906.19;5038892;28;20106;-84
2023/06/30 04:31:26;;;;;;;13.27;6.70;;;15.30;99.90;;;-144.05;90.93;56878.56;5040223;28;20113;-86
2023/06/30 04:36:20;;;;;;;13.55;6.32;;;15.30;99.90;;;-144.05;90.51;56876.44;5076507;28;20049;-87
2023/06/30 04:38:49;;;;;;;14.88;6.50;;;15.30;99.90;;;-144.05;90.60;56906.19;5079657;28;20090;-85
2023/06/30 04:41:15;;;;;;;12.07;5.70;;;15.30;99.90;;;-144.05;90.29;56878.56;5079841;28;20051;-85
2023/06/30 04:43:45;;;;;;;8.45;5.53;;;15.30;99.90;;;-144.05;90.28;56895.56;5078132;28;20040;-84
2023/06/30 04:46:11;;;;;;;11.45;5.40;;;15.30;99.90;;;-144.05;90.27;56876.44;5082212;28;20033;-86
2023/06/30 04:48:37;;;;;;;8.40;5.05;;;15.30;99.90;;;-144.05;90.45;56901.94;5080215;28;20067;-88
2023/06/30 04:51:03;;;;;;;9.43;5.03;;;15.30;99.90;;;-144.05;90.59;56908.31;5076975;28;20127;-87
2023/06/30 04:53:29;;;;;;;12.13;5.82;;;15.30;99.90;;;-144.05;90.34;56874.31;5078906;28;20028;-85
2023/06/30 04:55:54;;;;;;;10.77;4.90;;;15.30;99.90;;;-144.05;90.34;56897.69;5078266;28;20048;-84
2023/06/30 04:58:21;;;;;;;5.78;4.75;;;15.40;99.90;;;-144.05;90.26;56893.44;5064808;28;20037;-88
2023/06/30 05:00:47;;;;;;;8.68;4.28;;;15.40;99.90;;;-144.05;89.99;56901.94;5081885;28;20032;-86
2023/06/30 05:03:13;;;;;;;8.82;5.50;;;15.40;99.90;;;-144.05;89.12;56901.94;5081996;28;20024;-87
2023/06/30 05:05:39;;;;;;;8.88;4.75;;;15.40;99.90;;;-144.05;89.65;56891.31;5080972;28;20387;-85
2023/06/30 05:08:05;;;;;;;11.75;5.53;;;15.40;99.90;;;-144.05;88.43;56874.31;5080989;28;20039;-85
2023/06/30 05:10:31;;;;;;;13.80;5.13;;;15.40;99.90;;;-144.05;88.53;56874.31;5086116;28;20032;-87
2023/06/30 05:12:57;;;;;;;8.82;5.00;;;15.40;99.90;;;-144.05;88.61;56918.94;5086713;28;20084;-87
2023/06/30 05:15:22;;;;;;;9.70;4.75;;;15.50;99.90;;;-144.05;88.56;56901.94;5067745;28;20122;-84
2023/06/30 05:17:48;;;;;;;7.88;4.50;;;15.60;99.90;;;-144.05;88.43;56882.81;5085654;28;20036;-86
2023/06/30 05:20:15;;;;;;;9.05;5.50;;;15.60;99.90;;;-144.05;87.45;56889.19;5082142;28;20434;-86
2023/06/30 05:22:41;;;;;;;12.20;5.38;;;15.60;99.90;;;-144.05;87.45;56876.44;5083880;28;20510;-86
2023/06/30 05:25:07;;;;;;;9.80;5.10;;;15.60;99.90;;;-144.05;87.37;56874.31;5082671;28;20323;-86
2023/06/30 05:27:33;;;;;;;13.27;5.45;;;15.60;99.90;;;-144.05;87.40;56914.69;5065340;28;20134;-84
2023/06/30 05:29:59;;;;;;;9.23;5.15;;;15.60;99.90;;;-144.05;87.43;56880.69;5082494;28;20561;-84
2023/06/30 05:32:25;;;;;;;9.75;5.25;;;15.70;99.90;;;-144.05;87.45;56895.56;5064728;28;20043;-84
2023/06/30 05:34:51;;;;;;;11.50;5.32;;;15.70;99.90;;;-144.05;86.96;56867.94;5082368;28;20048;-86
2023/06/30 05:37:17;;;;;;;11.10;4.32;;;15.70;99.90;;;-144.05;86.36;56887.06;5083982;28;20035;-86
2023/06/30 05:39:43;;;;;;;11.70;5.53;;;15.60;99.90;;;-144.05;86.02;56882.81;5083270;28;20032;-86
2023/06/30 05:42:09;;;;;;;9.57;4.97;;;15.70;99.90;;;-144.05;85.80;56906.19;5083424;28;20039;-85
2023/06/30 05:44:35;;;;;;;9.80;4.90;;;15.60;99.90;;;-144.05;84.51;56891.31;5064375;28;20025;-85
2023/06/30 05:47:01;;;;;;;9.10;3.88;;;15.50;99.90;;;-144.05;84.31;56897.69;5083212;28;20036;-84
2023/06/30 05:49:28;;;;;;;9.75;3.80;;;15.50;99.90;;;-144.05;84.72;56893.44;5082034;28;20028;-87
2023/06/30 05:51:54;;;;;;;14.20;4.22;;;15.50;99.90;;;-144.05;84.49;56893.44;5082409;28;20186;-85
2023/06/30 05:54:19;;;;;;;7.75;4.07;;;15.60;99.90;;;-144.05;84.42;56882.81;5064918;28;20025;-86
2023/06/30 05:56:45;;;;;;;11.48;4.20;;;15.70;99.90;;;-144.05;83.95;56906.19;5063505;28;20266;-87
2023/06/30 05:59:11;;;;;;;12.25;4.20;;;15.80;99.90;;;-144.05;83.74;56872.19;5062157;28;20029;-87
2023/06/30 06:01:40;;;;;;;10.40;4.47;;;15.90;99.90;;;-144.05;82.77;56891.31;5080238;28;20021;-85
2023/06/30 06:04:11;;;;;;;8.82;4.20;;;16.10;99.90;;;-144.05;82.37;56918.94;5076700;28;20021;-86
2023/06/30 06:06:38;;;;;;;11.65;4.13;;;16.20;99.90;;;-144.05;81.86;56899.81;5060379;28;20514;-84
2023/06/30 06:09:03;;;;;;;9.68;4.20;;;16.30;99.90;;;-144.05;81.24;56897.69;5079636;28;20037;-84
2023/06/30 06:11:30;;;;;;;10.80;4.18;;;16.40;99.90;;;-144.05;80.62;56906.19;5060816;28;20115;-85
2023/06/30 06:13:56;;;;;;;9.68;4.10;;;16.50;99.90;;;-144.05;79.57;56870.06;5062360;28;20055;-85
2023/06/30 06:16:22;;;;;;;11.80;4.90;;;16.50;99.90;;;-144.05;78.13;56880.69;5062519;28;20479;-86
2023/06/30 06:18:48;;;;;;;9.23;4.72;;;16.40;99.90;;;-144.05;78.03;56906.19;5061832;28;20029;-85
2023/06/30 06:21:16;;;;;;;9.43;3.97;;;16.30;99.90;;;-144.05;78.72;56908.31;5062848;28;20099;-86
2023/06/30 06:23:42;;;;;;;8.40;4.07;;;16.40;99.90;;;-144.05;76.29;56906.19;5061706;28;20032;-87
2023/06/30 06:26:08;;;;;;;8.02;4.00;;;16.30;99.90;;;-144.05;77.04;56887.06;5055255;28;20040;-87
2023/06/30 06:28:34;;;;;;;10.50;4.60;;;16.50;99.90;;;-144.05;76.81;56867.94;5043598;28;20021;-85
2023/06/30 06:31:00;;;;;;;14.13;5.10;;;16.60;99.90;;;-144.05;75.97;56904.06;5042007;28;20032;-86
2023/06/30 06:33:26;;;;;;;8.48;3.20;;;16.80;99.90;;;-144.05;75.13;56897.69;5058492;28;20491;-85
2023/06/30 06:35:52;;;;;;;9.70;3.50;;;16.90;99.90;;;-144.05;73.91;56901.94;5059476;28;20037;-83
2023/06/30 06:38:19;;;;;;;12.00;3.47;;;17.00;99.90;;;-144.05;74.17;56887.06;5065665;28;20037;-86
2023/06/30 06:40:47;;;;;;;6.78;2.70;;;17.00;99.90;;;-144.05;74.10;56908.31;5067948;28;20080;-85
2023/06/30 06:43:13;;;;;;;10.10;3.45;;;17.10;99.90;;;-144.05;72.92;56904.06;5067296;28;20040;-87
2023/06/30 06:45:43;;;;;;;11.75;2.90;;;17.20;99.90;;;-144.05;69.92;56910.44;5049454;28;20096;-86
2023/06/30 06:48:28;;;;;;;5.35;2.45;;;17.50;99.90;;;-144.05;68.27;56910.44;5064579;28;20036;-87
2023/06/30 06:50:58;;;;;;;7.10;1.85;;;17.70;99.90;;;-144.05;66.68;56929.53;5066199;28;20032;-88
2023/06/30 06:53:34;;;;;;;8.93;2.60;;;17.90;99.90;;;-144.05;65.30;56910.44;5045806;28;20110;-85
2023/06/30 06:56:03;;;;;;;9.75;2.60;;;18.00;99.90;;;-144.05;65.57;56908.31;5065043;28;20033;-86
2023/06/30 06:58:44;;;;;;;5.47;2.13;;;18.40;99.90;;;-144.05;63.97;56899.81;5048220;28;20033;-86
2023/06/30 07:01:11;;;;;;;7.80;2.22;;;18.70;99.90;;;-144.05;62.04;56921.06;5048202;28;20372;-87
2023/06/30 07:03:38;;;;;;;8.75;2.60;;;18.50;99.90;;;-144.05;62.15;56895.56;5047786;28;20036;-88
2023/06/30 07:06:07;;;;;;;8.07;2.22;;;18.40;99.90;;;-144.05;61.41;56895.56;5064858;28;20068;-88
2023/06/30 07:08:35;;;;;;;11.27;2.53;;;17.90;99.90;;;-144.05;61.80;56889.19;5045972;28;20452;-88
2023/06/30 07:11:03;;;;;;;9.23;2.05;;;17.60;99.90;;;-144.05;64.08;56908.31;5059088;28;20051;-86
2023/06/30 07:13:29;;;;;;;4.93;1.98;;;17.60;99.90;;;-144.05;63.97;56904.06;5046428;28;20021;-86
2023/06/30 07:15:55;;;;;;;7.15;2.13;;;18.10;99.90;;;-144.05;61.76;56891.31;5046475;28;20112;-89
2023/06/30 07:18:22;;;;;;;10.98;2.80;;;18.40;99.90;;;-144.05;62.64;56918.94;5045234;28;20124;-88
2023/06/30 07:20:50;;;;;;;8.93;3.65;;;19.20;99.90;;;-144.05;61.47;56914.69;5045169;28;20025;-89
2023/06/30 07:23:17;;;;;;;11.50;3.88;;;19.30;99.90;;;-144.05;59.26;56944.41;5045016;28;20422;-84
2023/06/30 07:25:45;;;;;;;9.23;3.13;;;19.40;99.90;;;-144.05;58.32;56923.19;5066984;28;20020;-89
2023/06/30 07:28:12;;;;;;;12.68;2.75;;;19.00;99.90;;;-144.05;59.80;56916.81;5064698;28;20115;-87
2023/06/30 07:30:41;;;;;;;8.35;2.90;;;18.60;99.90;;;-144.05;61.55;56914.69;5065399;28;20025;-87
2023/06/30 07:33:07;;;;;;;6.53;2.42;;;18.20;99.90;;;-144.05;62.50;56884.94;5065566;28;20032;-86
2023/06/30 07:35:32;;;;;;;11.30;2.35;;;17.80;99.90;;;-144.05;62.50;56895.56;5066238;28;20043;-87
2023/06/30 07:37:58;;;;;;;9.32;2.53;;;18.20;99.90;;;-144.05;60.65;56921.06;5083412;28;20081;-86
2023/06/30 07:40:24;;;;;;;10.45;2.40;;;18.20;99.90;;;-144.05;59.75;56914.69;5065426;28;20056;-88
2023/06/30 07:42:50;;;;;;;8.95;2.30;;;18.20;99.90;;;-144.05;59.62;56891.31;5083995;28;20021;-87
2023/06/30 07:45:17;;;;;;;7.30;2.38;;;18.40;99.90;;;-144.05;59.93;56901.94;5082061;28;20039;-86
2023/06/30 07:47:48;;;;;;;5.07;1.67;;;18.90;99.90;;;-144.05;54.88;56923.19;5083672;28;20050;-87
2023/06/30 07:50:16;;;;;;;6.10;1.60;;;19.40;99.90;;;-144.05;52.02;56904.06;5082447;28;20055;-87
2023/06/30 07:52:48;;;;;;;4.10;1.50;;;19.70;99.90;;;-144.05;52.18;56935.91;5073736;28;20026;-83
2023/06/30 07:55:17;;;;;;;7.55;1.70;;;20.00;99.90;;;-144.05;51.50;56927.41;5077819;28;20094;-82
2023/06/30 07:57:48;;;;;;;7.57;1.63;;;20.10;99.90;;;-144.05;49.09;56950.78;5077266;28;20037;-82
2023/06/30 08:00:18;;;;;;;7.47;1.92;;;20.50;99.90;;;-144.05;48.96;56910.44;5092706;28;20013;-84
2023/06/30 08:02:46;;;;;;;6.18;1.83;;;20.50;99.90;;;-144.05;47.51;56921.06;5079540;28;20067;-83
2023/06/30 08:05:12;;;;;;;3.47;1.45;;;20.60;99.90;;;-144.05;46.93;56961.41;5061977;28;20406;-84
2023/06/30 08:07:38;;;;;;;4.00;1.15;;;20.70;99.90;;;-144.05;48.94;56944.41;5080901;28;20490;-83
2023/06/30 08:10:05;;;;;;;4.55;1.27;;;20.80;99.90;;;-144.05;48.10;56923.19;5080161;28;20039;-85
2023/06/30 08:12:31;;;;;;;5.97;1.40;;;20.60;99.90;;;-144.05;47.82;56942.28;5079446;28;20033;-86
2023/06/30 08:14:57;;;;;;;5.00;1.70;;;20.70;99.90;;;-144.05;45.79;56944.41;5079352;28;20073;-84
2023/06/30 08:17:22;;;;;;;4.55;1.63;;;20.70;99.90;;;-144.05;45.02;56927.41;5062466;28;20092;-85
2023/06/30 08:19:48;;;;;;;5.88;1.70;;;20.90;99.90;;;-144.05;44.75;56959.28;5080285;28;20031;-82
2023/06/30 08:22:15;;;;;;;5.47;1.50;;;21.30;99.90;;;-144.05;43.28;56946.53;5081389;28;20055;-86
2023/06/30 08:24:42;;;;;;;5.50;1.25;;;21.10;99.90;;;-144.05;42.32;56961.41;5079664;28;20131;-84
2023/06/30 08:27:09;;;;;;;3.47;1.20;;;21.30;99.90;;;-144.05;40.43;56963.53;5063579;28;20040;-83
2023/06/30 08:29:37;;;;;;;3.83;0.98;;;21.20;99.90;;;-144.05;41.51;56961.41;5060844;28;20037;-83
2023/06/30 08:32:04;;;;;;;5.55;1.10;;;21.20;99.90;;;-144.05;40.25;56957.16;5060601;28;20021;-83
2023/06/30 08:34:30;;;;;;;3.42;1.02;;;21.20;99.90;;;-144.05;39.95;56961.41;5061099;28;20045;-85
2023/06/30 08:36:56;;;;;;;5.63;1.23;;;21.20;99.90;;;-144.05;39.99;56950.78;5058980;28;20044;-83
2023/06/30 08:39:26;;;;;;;4.82;0.90;;;21.30;99.90;;;-144.05;39.64;56959.28;5042017;28;20392;-86
2023/06/30 08:41:55;;;;;;;4.25;1.08;;;21.60;99.90;;;-144.05;37.56;56972.03;5060654;28;20510;-84
2023/06/30 08:44:26;;;;;;;5.47;1.10;;;21.80;99.90;;;-144.05;38.42;56967.78;5044713;28;20033;-85
2023/06/30 08:46:55;;;;;;;6.55;1.30;;;22.00;99.90;;;-144.05;38.28;56986.91;5044243;28;20029;-84
2023/06/30 08:49:25;;;;;;;3.67;1.00;;;22.20;99.90;;;-144.05;37.68;56972.03;5061203;28;20419;-84
2023/06/30 08:51:57;;;;;;;3.83;1.40;;;22.20;99.90;;;-144.05;38.67;56976.28;5062140;28;20033;-84
2023/06/30 08:54:24;;;;;;;4.65;1.58;;;22.40;99.90;;;-144.05;38.23;56999.63;5043914;28;20033;-82
2023/06/30 08:56:53;;;;;;;4.35;1.58;;;22.20;99.90;;;-144.05;40.34;56978.41;5061178;28;20032;-84
2023/06/30 08:59:20;;;;;;;4.60;1.77;;;21.60;99.90;;;-144.05;40.27;56963.53;5063287;28;20029;-83
2023/06/30 09:01:46;;;;;;;4.18;2.13;;;21.50;99.90;;;-144.05;39.70;56976.28;5062216;28;20059;-82
2023/06/30 09:04:13;;;;;;;4.90;1.90;;;21.80;99.90;;;-144.05;39.19;56982.66;5065228;28;20158;-83
2023/06/30 09:06:48;;;;;;;4.07;1.40;;;22.10;99.90;;;-144.05;37.26;56967.78;5063947;28;20033;-82
2023/06/30 09:09:27;;;;;;;2.55;1.20;;;22.40;99.90;;;-144.05;37.09;57001.75;5048643;28;20037;-83
2023/06/30 09:11:54;;;;;;;3.80;1.40;;;22.80;99.90;;;-144.05;36.61;56993.25;5065244;28;20444;-83
2023/06/30 09:14:23;;;;;;;3.80;1.40;;;22.90;99.90;;;-144.05;35.88;56995.38;5047025;28;20032;-83
2023/06/30 09:16:49;;;;;;;5.07;1.30;;;22.90;99.90;;;-144.05;36.28;56997.50;5047546;28;20033;-84
2023/06/30 09:19:16;;;;;;;4.57;1.30;;;22.80;99.90;;;-144.05;37.16;56984.78;5065328;28;20079;-84
2023/06/30 09:21:42;;;;;;;3.47;1.48;;;22.50;99.90;;;-144.05;36.97;56980.53;5065799;28;20029;-81
2023/06/30 09:24:08;;;;;;;6.82;1.40;;;22.70;99.90;;;-144.05;34.97;56991.13;5061644;28;20036;-81
2023/06/30 09:26:34;;;;;;;4.82;1.20;;;22.60;99.80;;;-144.05;36.39;56999.63;5076733;28;20028;-82
2023/06/30 09:29:02;;;;;;;4.72;0.93;;;22.60;99.90;;;-144.05;34.71;56999.63;5084999;28;20112;-84
2023/06/30 09:31:30;;;;;;;4.57;1.20;;;23.00;98.40;;;-144.05;34.39;57012.38;5082892;28;20120;-81
2023/06/30 09:34:13;;;;;;;3.83;2.08;;;23.10;98.30;;;-144.05;34.43;57014.50;5084584;28;20028;-83
2023/06/30 09:36:52;;;;;;;3.03;1.20;;;23.40;97.30;;;-144.05;34.30;57010.25;5084129;28;20025;-82
2023/06/30 09:39:22;;;;;;;4.18;1.23;;;23.40;97.80;;;-144.05;34.86;57010.25;5084628;28;20021;-86
2023/06/30 09:41:51;;;;;;;3.95;0.93;;;23.90;98.20;;;-144.05;34.11;56995.38;5084177;28;20035;-82
2023/06/30 09:44:20;;;;;;;5.05;1.33;;;23.30;96.40;;;-144.05;34.41;57018.75;5083954;28;20031;-84
2023/06/30 09:46:52;;;;;;;4.38;1.10;;;23.40;97.50;;;-144.05;33.79;57044.25;5084233;28;20060;-86
2023/06/30 09:49:30;;;;;;;1.90;0.93;;;23.20;95.50;;;-144.05;35.26;56976.28;5082647;28;20029;-82
2023/06/30 09:52:03;;;;;;;2.63;0.88;;;22.30;97.20;;;-144.05;35.69;56995.38;5083329;28;20040;-83
2023/06/30 09:54:31;;;;;;;6.82;1.30;;;22.50;98.10;;;-144.05;35.32;56991.13;5081926;28;20103;-82
2023/06/30 09:57:05;;;;;;;2.40;1.13;;;22.90;97.20;;;-144.05;34.44;57001.75;5083103;28;20029;-83
2023/06/30 09:59:33;;;;;;;2.65;0.98;;;23.10;96.00;;;-144.05;34.55;57006.00;5065941;28;20432;-83
2023/06/30 10:02:00;;;;;;;4.82;1.02;;;23.30;95.80;;;-144.05;34.19;56997.50;5082624;28;20084;-86
2023/06/30 10:04:29;;;;;;;4.93;1.08;;;23.60;96.00;;;-144.05;32.66;56974.16;5083904;28;20545;-84
2023/06/30 10:06:57;;;;;;;5.20;1.23;;;23.70;93.00;;;-144.05;33.63;57010.25;5066342;28;20043;-80
2023/06/30 10:09:25;;;;;;;3.40;1.00;;;23.70;94.10;;;-144.05;33.46;57012.38;5084095;28;20024;-84